createdAt,value
2022-09-24T00:02:01.691Z,28.05
2022-09-24T00:04:08.537Z,28.75
2022-09-24T00:06:10.495Z,32.92
2022-09-24T00:08:14.008Z,26.73
2022-09-24T00:10:16.989Z,30.52
2022-09-24T00:12:19.881Z,24.65
2022-09-24T00:14:21.965Z,26.02
2022-09-24T00:16:28.106Z,24.77
2022-09-24T00:18:30.791Z,24.42
2022-09-24T00:20:33.309Z,31.63
2022-09-24T00:22:35.218Z,28.58
2022-09-24T00:24:55.569Z,28.20
2022-09-24T00:26:58.972Z,25.50
2022-09-24T00:29:01.910Z,25.25
2022-09-24T00:31:08.001Z,25.33
2022-09-24T00:33:11.017Z,24.95
2022-09-24T00:35:12.921Z,27.02
2022-09-24T00:37:14.780Z,25.23
2022-09-24T00:39:17.086Z,25.70
2022-09-24T00:41:20.652Z,25.00
2022-09-24T00:43:31.690Z,28.15
2022-09-24T00:45:33.553Z,25.33
2022-09-24T00:47:40.818Z,24.90
2022-09-24T00:49:42.893Z,27.42
2022-09-24T00:51:50.521Z,27.30
2022-09-24T00:53:58.835Z,25.98
2022-09-24T00:56:03.255Z,25.67
2022-09-24T00:58:07.670Z,25.80
2022-09-24T01:00:10.737Z,26.50
2022-09-24T01:02:13.027Z,26.48
2022-09-24T01:04:18.002Z,25.10
2022-09-24T01:06:19.865Z,23.65
2022-09-24T01:08:21.757Z,25.90
2022-09-24T01:10:49.797Z,28.23
2022-09-24T01:13:03.361Z,23.90
2022-09-24T01:15:25.955Z,21.67
2022-09-24T01:17:36.660Z,26.95
2022-09-24T01:20:06.129Z,23.52
2022-09-24T01:22:40.240Z,22.67
2022-09-24T01:24:50.857Z,23.17
2022-09-24T01:27:20.365Z,19.10
2022-09-24T01:29:32.258Z,25.35
2022-09-24T01:31:42.022Z,23.15
2022-09-24T01:33:49.302Z,20.70
2022-09-24T01:35:56.147Z,27.83
2022-09-24T01:38:06.702Z,24.17
2022-09-24T01:40:11.789Z,25.90
2022-09-24T01:42:17.478Z,26.48
2022-09-24T01:44:20.976Z,23.70
2022-09-24T01:46:24.319Z,23.27
2022-09-24T01:48:27.153Z,20.73
2022-09-24T01:50:34.674Z,22.38
2022-09-24T01:53:08.848Z,25.02
2022-09-24T01:55:16.636Z,25.33
2022-09-24T01:57:30.348Z,24.40
2022-09-24T01:59:40.656Z,21.58
2022-09-24T02:01:50.401Z,23.17
2022-09-24T02:03:57.957Z,26.83
2022-09-24T02:06:06.320Z,22.05
2022-09-24T02:08:14.009Z,26.55
2022-09-24T02:10:17.996Z,21.83
2022-09-24T02:12:29.827Z,24.02
2022-09-24T02:14:36.481Z,24.08
2022-09-24T02:16:48.183Z,23.52
2022-09-24T02:20:56.657Z,21.85
2022-09-24T02:22:59.331Z,20.52
2022-09-24T02:25:04.370Z,22.85
2022-09-24T02:27:08.978Z,23.42
2022-09-24T02:29:11.135Z,20.40
2022-09-24T02:31:22.397Z,21.85
2022-09-24T02:33:44.897Z,25.10
2022-09-24T02:35:48.277Z,22.10
2022-09-24T02:37:50.209Z,20.98
2022-09-24T02:39:52.186Z,22.55
2022-09-24T02:41:55.030Z,22.58
2022-09-24T02:43:57.001Z,21.38
2022-09-24T02:45:58.923Z,21.35
2022-09-24T02:48:00.818Z,25.52
2022-09-24T02:50:02.929Z,23.10
2022-09-24T02:52:05.025Z,19.92
2022-09-24T02:54:07.485Z,24.60
2022-09-24T02:56:09.483Z,21.60
2022-09-24T02:58:12.526Z,21.33
2022-09-24T03:00:14.964Z,21.08
2022-09-24T03:02:17.002Z,22.73
2022-09-24T03:04:25.499Z,22.50
2022-09-24T03:06:27.902Z,18.05
2022-09-24T03:08:31.464Z,21.52
2022-09-24T03:10:33.938Z,20.25
2022-09-24T03:12:35.818Z,20.40
2022-09-24T03:14:38.793Z,21.10
2022-09-24T03:16:40.734Z,20.17
2022-09-24T03:18:42.750Z,24.13
2022-09-24T03:20:55.624Z,21.08
2022-09-24T03:22:57.747Z,21.52
2022-09-24T03:24:59.723Z,18.42
2022-09-24T03:27:01.596Z,19.80
2022-09-24T03:29:03.434Z,17.70
2022-09-24T03:31:12.351Z,17.83
2022-09-24T03:33:14.235Z,19.80
2022-09-24T03:35:16.097Z,19.55
2022-09-24T03:37:18.083Z,18.65
2022-09-24T03:39:19.961Z,19.58
2022-09-24T03:41:22.456Z,16.00
2022-09-24T03:43:25.067Z,18.40
2022-09-24T03:45:26.931Z,17.88
2022-09-24T03:47:31.497Z,16.95
2022-09-24T03:49:33.367Z,15.52
2022-09-24T03:51:36.241Z,18.33
2022-09-24T03:53:38.867Z,17.42
2022-09-24T03:55:48.509Z,22.33
2022-09-24T03:57:51.349Z,17.00
2022-09-24T03:59:54.260Z,18.73
2022-09-24T04:02:03.113Z,16.67
2022-09-24T04:04:05.693Z,17.00
2022-09-24T04:06:08.061Z,14.98
2022-09-24T04:08:10.973Z,13.10
2022-09-24T04:10:13.963Z,16.40
2022-09-24T04:12:15.841Z,13.00
2022-09-24T04:14:17.734Z,14.32
2022-09-24T04:16:19.703Z,16.05
2022-09-24T04:18:22.465Z,15.73
2022-09-24T04:20:28.851Z,15.27
2022-09-24T04:22:31.711Z,20.42
2022-09-24T04:24:33.548Z,17.33
2022-09-24T04:26:35.574Z,21.15
2022-09-24T04:28:43.420Z,16.65
2022-09-24T04:30:45.396Z,16.13
2022-09-24T04:32:47.458Z,14.50
2022-09-24T04:34:49.557Z,16.77
2022-09-24T04:36:51.486Z,16.73
2022-09-24T04:38:53.531Z,15.55
2022-09-24T04:41:05.253Z,14.52
2022-09-24T04:45:11.698Z,14.52
2022-09-24T04:47:17.684Z,16.73
2022-09-24T04:49:25.528Z,19.25
2022-09-24T04:51:29.400Z,13.80
2022-09-24T04:53:31.320Z,17.05
2022-09-24T04:55:33.172Z,14.50
2022-09-24T04:57:36.141Z,15.00
2022-09-24T04:59:38.931Z,16.50
2022-09-24T05:01:41.839Z,20.02
2022-09-24T05:03:45.541Z,14.18
2022-09-24T05:05:47.763Z,15.23
2022-09-24T05:07:51.393Z,12.75
2022-09-24T05:09:53.280Z,15.48
2022-09-24T05:11:56.176Z,13.57
2022-09-24T05:13:58.055Z,14.13
2022-09-24T05:16:01.254Z,16.38
2022-09-24T05:18:04.413Z,15.23
2022-09-24T05:20:10.756Z,17.45
2022-09-24T05:22:13.018Z,20.50
2022-09-24T05:24:15.118Z,18.92
2022-09-24T05:26:35.610Z,15.98
2022-09-24T05:28:39.767Z,16.00
2022-09-24T05:30:41.669Z,21.92
2022-09-24T05:32:43.792Z,16.65
2022-09-24T05:34:49.283Z,18.20
2022-09-24T05:36:51.159Z,16.55
2022-09-24T05:38:54.144Z,16.13
2022-09-24T05:40:56.371Z,17.38
2022-09-24T05:43:04.894Z,18.15
2022-09-24T05:45:07.985Z,17.13
2022-09-24T05:47:09.965Z,16.67
2022-09-24T05:49:12.393Z,19.92
2022-09-24T05:51:14.336Z,18.88
2022-09-24T05:53:16.255Z,23.60
2022-09-24T05:55:18.151Z,25.80
2022-09-24T05:57:20.365Z,20.52
2022-09-24T05:59:22.301Z,24.38
2022-09-24T06:01:24.990Z,22.25
2022-09-24T06:03:28.045Z,35.63
2022-09-24T06:05:30.066Z,40.20
2022-09-24T06:07:31.970Z,36.85
2022-09-24T06:09:33.823Z,27.10
2022-09-24T06:11:39.944Z,25.65
2022-09-24T06:13:42.390Z,21.15
2022-09-24T06:15:44.965Z,26.67
2022-09-24T06:17:48.908Z,15.85
2022-09-24T06:19:50.993Z,18.63
2022-09-24T06:21:52.850Z,19.52
2022-09-24T06:23:54.688Z,16.83
2022-09-24T06:25:58.414Z,20.17
2022-09-24T06:28:02.796Z,17.48
2022-09-24T06:30:07.379Z,15.68
2022-09-24T06:32:10.013Z,18.23
2022-09-24T06:34:13.840Z,14.90
2022-09-24T06:36:15.746Z,13.80
2022-09-24T06:38:19.016Z,17.10
2022-09-24T06:40:26.303Z,15.07
2022-09-24T06:42:31.209Z,11.48
2022-09-24T06:44:37.112Z,12.95
2022-09-24T06:46:39.026Z,9.82
2022-09-24T06:48:42.853Z,13.90
2022-09-24T06:50:45.669Z,11.75
2022-09-24T06:52:47.779Z,11.98
2022-09-24T06:54:49.734Z,14.73
2022-09-24T06:56:52.817Z,13.43
2022-09-24T06:58:54.707Z,9.70
2022-09-24T07:00:59.510Z,12.80
2022-09-24T07:03:04.825Z,13.98
2022-09-24T07:05:08.201Z,11.07
2022-09-24T07:07:28.580Z,10.20
2022-09-24T07:09:30.519Z,9.93
2022-09-24T07:11:32.584Z,10.32
2022-09-24T07:13:35.654Z,10.80
2022-09-24T07:15:37.577Z,13.85
2022-09-24T07:17:39.509Z,10.25
2022-09-24T07:19:41.759Z,7.20
2022-09-24T07:21:44.653Z,9.25
2022-09-24T07:23:47.054Z,6.97
2022-09-24T07:25:51.973Z,10.25
2022-09-24T07:28:00.419Z,8.25
2022-09-24T07:30:02.588Z,10.60
2022-09-24T07:32:05.886Z,8.98
2022-09-24T07:34:11.500Z,8.35
2022-09-24T07:36:14.423Z,9.55
2022-09-24T07:38:17.333Z,6.53
2022-09-24T07:40:20.751Z,12.02
2022-09-24T07:42:22.779Z,7.45
2022-09-24T07:44:24.717Z,6.18
2022-09-24T07:46:27.312Z,7.35
2022-09-24T07:48:33.257Z,25.52
2022-09-24T07:50:42.978Z,12.02
2022-09-24T07:52:51.029Z,9.82
2022-09-24T07:54:54.386Z,9.30
2022-09-24T07:56:56.767Z,9.32
2022-09-24T07:58:58.597Z,8.52
2022-09-24T08:01:04.667Z,7.75
2022-09-24T08:03:07.656Z,6.00
2022-09-24T08:05:11.029Z,12.43
2022-09-24T08:07:14.109Z,8.68
2022-09-24T08:09:22.440Z,6.70
2022-09-24T08:11:24.309Z,5.32
2022-09-24T08:13:27.890Z,5.60
2022-09-24T08:15:30.489Z,5.15
2022-09-24T08:17:32.506Z,7.22
2022-09-24T08:19:34.647Z,5.55
2022-09-24T08:21:39.301Z,5.40
2022-09-24T08:23:44.908Z,7.90
2022-09-24T08:25:48.101Z,4.93
2022-09-24T08:27:50.019Z,7.40
2022-09-24T08:29:52.494Z,5.03
2022-09-24T08:31:54.395Z,4.65
2022-09-24T08:33:56.249Z,4.72
2022-09-24T08:36:02.692Z,5.93
2022-09-24T08:38:06.150Z,10.18
2022-09-24T08:40:18.883Z,5.50
2022-09-24T08:42:49.573Z,14.18
2022-09-24T08:45:11.373Z,6.07
2022-09-24T08:47:37.090Z,3.92
2022-09-24T08:49:48.310Z,7.95
2022-09-24T08:52:22.653Z,7.72
2022-09-24T08:54:26.908Z,4.22
2022-09-24T08:56:34.642Z,6.15
2022-09-24T08:58:45.843Z,4.93
2022-09-24T09:00:51.836Z,10.23
2022-09-24T09:03:02.632Z,24.17
2022-09-24T09:05:19.571Z,6.03
2022-09-24T09:07:32.166Z,6.78
2022-09-24T09:10:10.419Z,8.60
2022-09-24T09:12:42.236Z,5.63
2022-09-24T09:17:14.911Z,6.70
2022-09-24T09:19:20.191Z,12.75
2022-09-24T09:21:52.569Z,5.45
2022-09-24T09:23:57.610Z,6.38
2022-09-24T09:26:00.094Z,3.85
2022-09-24T09:28:15.391Z,10.05
2022-09-24T09:30:22.012Z,7.55
2022-09-24T09:32:46.387Z,6.15
2022-09-24T09:35:14.562Z,5.90
2022-09-24T09:37:35.072Z,5.15
2022-09-24T09:40:10.723Z,5.15
2022-09-24T09:42:36.272Z,4.20
2022-09-24T09:44:43.270Z,5.38
2022-09-24T09:46:53.677Z,5.38
2022-09-24T09:49:03.218Z,3.85
2022-09-24T09:51:41.625Z,4.97
2022-09-24T09:53:54.788Z,6.25
2022-09-24T09:56:07.795Z,4.10
2022-09-24T09:58:29.653Z,5.97
2022-09-24T10:00:36.700Z,5.85
2022-09-24T10:02:43.744Z,6.07
2022-09-24T10:04:49.117Z,7.82
2022-09-24T10:07:04.409Z,4.60
2022-09-24T10:09:16.243Z,8.88
2022-09-24T10:11:19.254Z,5.88
2022-09-24T10:13:21.600Z,4.43
2022-09-24T10:15:26.595Z,5.20
2022-09-24T10:17:40.382Z,3.60
2022-09-24T10:19:48.040Z,3.35
2022-09-24T10:21:51.912Z,6.60
2022-09-24T10:24:00.416Z,4.72
2022-09-24T10:26:04.837Z,4.90
2022-09-24T10:28:38.654Z,2.97
2022-09-24T10:31:01.458Z,4.90
2022-09-24T10:33:06.492Z,4.03
2022-09-24T10:35:26.619Z,6.30
2022-09-24T10:37:30.292Z,5.63
2022-09-24T10:39:34.465Z,3.58
2022-09-24T10:41:38.505Z,2.05
2022-09-24T10:43:40.443Z,5.07
2022-09-24T10:45:49.222Z,2.88
2022-09-24T10:48:08.329Z,3.78
2022-09-24T10:50:34.595Z,3.13
2022-09-24T10:52:57.640Z,3.00
2022-09-24T10:55:22.107Z,2.15
2022-09-24T10:57:48.063Z,2.20
2022-09-24T11:00:12.494Z,2.85
2022-09-24T11:02:29.250Z,5.63
2022-09-24T11:04:36.461Z,2.63
2022-09-24T11:07:05.451Z,3.38
2022-09-24T11:09:22.239Z,3.15
2022-09-24T11:12:02.442Z,5.22
2022-09-24T11:14:31.673Z,2.83
2022-09-24T11:17:00.856Z,2.25
2022-09-24T11:19:12.722Z,1.83
2022-09-24T11:21:39.957Z,2.97
2022-09-24T11:24:00.260Z,2.38
2022-09-24T11:26:16.754Z,2.88
2022-09-24T11:28:30.993Z,2.25
2022-09-24T11:30:47.660Z,2.03
2022-09-24T11:33:22.863Z,2.40
2022-09-24T11:35:54.074Z,2.20
2022-09-24T11:38:01.702Z,2.40
2022-09-24T11:40:34.367Z,2.25
2022-09-24T11:42:50.408Z,3.22
2022-09-24T11:45:46.276Z,2.78
2022-09-24T11:48:12.356Z,2.95
2022-09-24T11:50:51.859Z,1.95
2022-09-24T11:53:12.341Z,2.33
2022-09-24T11:55:32.731Z,6.03
2022-09-24T11:57:46.725Z,3.08
2022-09-24T12:00:10.328Z,3.40
2022-09-24T12:02:25.294Z,2.55
2022-09-24T12:04:50.820Z,3.10
2022-09-24T12:07:00.681Z,2.08
2022-09-24T12:09:10.517Z,2.40
2022-09-24T12:11:22.436Z,6.32
2022-09-24T12:13:36.105Z,2.97
2022-09-24T12:15:48.183Z,4.38
2022-09-24T12:18:01.452Z,4.90
2022-09-24T12:20:14.624Z,3.97
2022-09-24T12:22:19.510Z,1.80
2022-09-24T12:24:37.975Z,4.82
2022-09-24T12:26:42.790Z,2.65
2022-09-24T12:29:33.415Z,2.78
2022-09-24T12:32:00.851Z,2.78
2022-09-24T12:34:41.151Z,1.88
2022-09-24T12:37:04.391Z,7.30
2022-09-24T12:39:09.699Z,3.75
2022-09-24T12:41:14.644Z,3.13
2022-09-24T12:43:31.575Z,3.00
2022-09-24T12:45:35.652Z,2.67
2022-09-24T12:47:47.157Z,3.28
2022-09-24T12:52:02.200Z,2.03
2022-09-24T12:54:24.510Z,4.25
2022-09-24T12:56:30.191Z,3.95
2022-09-24T12:58:40.330Z,3.95
2022-09-24T13:00:45.999Z,5.55
2022-09-24T13:02:48.652Z,4.90
2022-09-24T13:05:02.745Z,3.78
2022-09-24T13:07:31.578Z,3.63
2022-09-24T13:09:40.131Z,2.05
2022-09-24T13:11:42.074Z,4.13
2022-09-24T13:13:44.364Z,2.53
2022-09-24T13:15:56.192Z,3.03
2022-09-24T13:18:05.316Z,2.38
2022-09-24T13:20:17.278Z,2.60
2022-09-24T13:22:27.334Z,3.25
2022-09-24T13:24:45.387Z,6.20
2022-09-24T13:26:47.266Z,3.25
2022-09-24T13:28:51.563Z,3.20
2022-09-24T13:31:22.853Z,3.08
2022-09-24T13:33:32.144Z,2.35
2022-09-24T13:35:46.076Z,3.60
2022-09-24T13:37:55.109Z,3.03
2022-09-24T13:40:06.614Z,2.47
2022-09-24T13:42:51.420Z,2.40
2022-09-24T13:45:00.714Z,4.30
2022-09-24T13:47:32.599Z,2.88
2022-09-24T13:51:41.576Z,3.58
2022-09-24T13:54:02.699Z,3.42
2022-09-24T13:56:12.287Z,2.60
2022-09-24T13:58:34.132Z,3.40
2022-09-24T14:00:42.499Z,4.07
2022-09-24T14:02:53.138Z,2.70
2022-09-24T14:05:00.758Z,3.47
2022-09-24T14:07:02.877Z,2.45
2022-09-24T14:09:32.030Z,2.17
2022-09-24T14:11:33.857Z,3.35
2022-09-24T14:13:44.345Z,3.47
2022-09-24T14:16:23.718Z,2.63
2022-09-24T14:18:28.326Z,2.67
2022-09-24T14:20:35.478Z,3.90
2022-09-24T14:22:42.342Z,5.70
2022-09-24T14:24:57.190Z,4.72
2022-09-24T14:27:03.727Z,2.75
2022-09-24T14:29:19.386Z,3.50
2022-09-24T14:31:21.561Z,4.18
2022-09-24T14:33:28.613Z,2.45
2022-09-24T14:35:37.548Z,4.93
2022-09-24T14:37:48.023Z,2.10
2022-09-24T14:39:59.218Z,2.85
2022-09-24T14:42:22.227Z,4.63
2022-09-24T14:44:27.645Z,4.95
2022-09-24T14:46:40.829Z,2.95
2022-09-24T14:48:44.383Z,3.83
2022-09-24T14:50:49.208Z,2.47
2022-09-24T14:52:57.126Z,1.75
2022-09-24T14:55:20.309Z,2.17
2022-09-24T14:57:25.190Z,2.75
2022-09-24T14:59:30.576Z,3.47
2022-09-24T15:01:35.679Z,5.43
2022-09-24T15:03:58.443Z,2.75
2022-09-24T15:06:30.551Z,3.50
2022-09-24T15:08:32.533Z,2.45
2022-09-24T15:10:34.653Z,5.18
2022-09-24T15:12:41.066Z,2.95
2022-09-24T15:14:54.773Z,2.20
2022-09-24T15:17:19.642Z,2.72
2022-09-24T15:19:27.268Z,2.80
2022-09-24T15:21:30.287Z,4.53
2022-09-24T15:23:32.226Z,3.40
2022-09-24T15:25:34.493Z,5.90
2022-09-24T15:27:42.771Z,3.08
2022-09-24T15:29:44.626Z,4.32
2022-09-24T15:31:47.257Z,3.85
2022-09-24T15:33:50.397Z,3.10
2022-09-24T15:35:54.351Z,3.35
2022-09-24T15:37:58.792Z,5.82
2022-09-24T15:40:23.583Z,3.03
2022-09-24T15:42:27.613Z,5.35
2022-09-24T15:44:34.196Z,7.75
2022-09-24T15:46:38.417Z,5.88
2022-09-24T15:48:41.522Z,4.10
2022-09-24T15:50:45.942Z,4.22
2022-09-24T15:53:12.701Z,10.23
2022-09-24T15:55:19.626Z,7.43
2022-09-24T15:57:22.836Z,3.80
2022-09-24T15:59:24.965Z,7.93
2022-09-24T16:01:26.973Z,5.10
2022-09-24T16:03:31.050Z,7.18
2022-09-24T16:05:32.995Z,8.35
2022-09-24T16:07:34.906Z,8.77
2022-09-24T16:09:38.933Z,11.43
2022-09-24T16:11:40.883Z,12.48
2022-09-24T16:13:42.753Z,20.35
2022-09-24T16:15:45.001Z,29.58
2022-09-24T16:17:50.131Z,31.70
2022-09-24T16:19:55.059Z,30.65
2022-09-24T16:21:57.015Z,24.38
2022-09-24T16:24:00.452Z,27.75
2022-09-24T16:26:03.645Z,27.80
2022-09-24T16:28:05.597Z,23.77
2022-09-24T16:30:08.466Z,29.17
2022-09-24T16:32:11.593Z,28.92
2022-09-24T16:34:13.419Z,28.40
2022-09-24T16:36:15.868Z,32.17
2022-09-24T16:38:22.925Z,31.95
2022-09-24T16:40:29.473Z,43.92
2022-09-24T16:42:31.478Z,29.35
2022-09-24T16:44:33.348Z,21.83
2022-09-24T16:46:35.404Z,18.38
2022-09-24T16:48:37.534Z,13.02
2022-09-24T16:50:41.762Z,20.58
2022-09-24T16:52:45.011Z,22.15
2022-09-24T16:54:46.948Z,15.82
2022-09-24T16:56:52.107Z,15.13
2022-09-24T16:58:54.705Z,15.45
2022-09-24T17:00:56.546Z,17.92
2022-09-24T17:02:59.855Z,15.95
2022-09-24T17:05:04.434Z,24.95
2022-09-24T17:07:06.345Z,17.73
2022-09-24T17:09:28.343Z,22.10
2022-09-24T17:11:31.279Z,21.02
2022-09-24T17:13:33.857Z,19.45
2022-09-24T17:15:36.800Z,19.20
2022-09-24T17:17:45.669Z,21.17
2022-09-24T17:19:51.142Z,12.07
2022-09-24T17:21:54.375Z,21.25
2022-09-24T17:23:56.495Z,20.52
2022-09-24T17:26:12.846Z,24.95
2022-09-24T17:28:15.787Z,24.83
2022-09-24T17:30:17.871Z,28.15
2022-09-24T17:32:20.406Z,17.48
2022-09-24T17:34:22.296Z,22.15
2022-09-24T17:36:25.649Z,22.30
2022-09-24T17:38:33.283Z,22.05
2022-09-24T17:40:36.205Z,26.95
2022-09-24T17:42:38.778Z,28.65
2022-09-24T17:44:40.701Z,38.65
2022-09-24T17:46:42.761Z,25.38
2022-09-24T17:48:47.674Z,31.50
2022-09-24T17:50:59.912Z,32.30
2022-09-24T17:53:03.923Z,33.95
2022-09-24T17:55:08.569Z,34.50
2022-09-24T17:57:11.393Z,30.33
2022-09-24T17:59:14.369Z,39.85
2022-09-24T18:01:28.062Z,33.88
2022-09-24T18:03:29.964Z,33.70
2022-09-24T18:05:31.831Z,25.58
2022-09-24T18:07:35.938Z,38.70
2022-09-24T18:09:38.770Z,33.47
2022-09-24T18:11:44.685Z,34.83
2022-09-24T18:13:54.516Z,25.90
2022-09-24T18:15:56.433Z,32.25
2022-09-24T18:17:58.466Z,30.77
2022-09-24T18:20:01.507Z,36.63
2022-09-24T18:22:04.774Z,43.38
2022-09-24T18:24:07.333Z,45.95
2022-09-24T18:26:16.198Z,43.50
2022-09-24T18:28:18.932Z,38.97
2022-09-24T18:30:20.954Z,37.25
2022-09-24T18:32:26.590Z,40.92
2022-09-24T18:34:28.658Z,49.40
2022-09-24T18:36:30.835Z,43.33
2022-09-24T18:38:34.293Z,33.22
2022-09-24T18:40:38.051Z,30.70
2022-09-24T18:42:40.036Z,31.38
2022-09-24T18:44:42.072Z,33.53
2022-09-24T18:46:45.734Z,46.03
2022-09-24T18:48:50.314Z,42.97
2022-09-24T18:50:52.136Z,39.38
2022-09-24T18:53:00.245Z,43.65
2022-09-24T18:55:02.771Z,39.83
2022-09-24T18:57:04.743Z,41.50
2022-09-24T18:59:11.306Z,40.35
2022-09-24T19:01:15.809Z,60.10
2022-09-24T19:03:18.804Z,59.38
2022-09-24T19:05:21.680Z,62.65
2022-09-24T19:07:25.539Z,46.47
2022-09-24T19:09:27.524Z,52.78
2022-09-24T19:11:30.614Z,54.90
2022-09-24T19:13:40.432Z,51.67
2022-09-24T19:15:42.920Z,43.80
2022-09-24T19:17:44.842Z,52.30
2022-09-24T19:19:52.104Z,52.08
2022-09-24T19:21:55.419Z,49.85
2022-09-24T19:23:59.417Z,52.30
2022-09-24T19:26:02.874Z,51.90
2022-09-24T19:28:11.355Z,50.70
2022-09-24T19:30:14.296Z,45.85
2022-09-24T19:32:16.203Z,47.63
2022-09-24T19:34:18.187Z,46.38
2022-09-24T19:36:21.614Z,48.92
2022-09-24T19:38:28.688Z,46.60
2022-09-24T19:40:31.779Z,48.08
2022-09-24T19:42:33.720Z,46.65
2022-09-24T19:44:35.632Z,45.08
2022-09-24T19:46:38.880Z,49.40
2022-09-24T19:48:43.141Z,46.30
2022-09-24T19:50:45.238Z,43.70
2022-09-24T19:52:48.935Z,43.83
2022-09-24T19:54:51.226Z,40.97
2022-09-24T19:56:55.110Z,44.05
2022-09-24T19:58:59.073Z,41.85
2022-09-24T20:01:06.297Z,47.83
2022-09-24T20:03:08.396Z,41.95
2022-09-24T20:05:11.419Z,43.47
2022-09-24T20:07:13.593Z,44.08
2022-09-24T20:09:15.607Z,43.67
2022-09-24T20:11:22.615Z,47.55
2022-09-24T20:13:24.462Z,44.47
2022-09-24T20:15:29.256Z,38.90
2022-09-24T20:17:31.240Z,38.58
2022-09-24T20:19:33.124Z,42.03
2022-09-24T20:21:35.438Z,42.33
2022-09-24T20:23:37.430Z,38.42
2022-09-24T20:25:58.880Z,40.90
2022-09-24T20:28:01.998Z,39.47
2022-09-24T20:30:04.168Z,36.75
2022-09-24T20:32:07.144Z,38.97
2022-09-24T20:34:09.499Z,37.38
2022-09-24T20:36:16.526Z,37.15
2022-09-24T20:38:22.364Z,39.60
2022-09-24T20:40:24.338Z,39.80
2022-09-24T20:42:26.414Z,39.35
2022-09-24T20:44:28.455Z,37.28
2022-09-24T20:46:32.354Z,39.83
2022-09-24T20:48:40.536Z,34.33
2022-09-24T20:50:44.524Z,36.13
2022-09-24T20:52:46.769Z,36.92
2022-09-24T20:54:48.663Z,41.25
2022-09-24T20:56:53.532Z,47.83
2022-09-24T20:58:56.744Z,50.13
2022-09-24T21:01:00.209Z,47.20
2022-09-24T21:03:15.462Z,48.00
2022-09-24T21:05:28.387Z,45.80
2022-09-24T21:07:30.300Z,43.65
2022-09-24T21:09:32.282Z,48.88
2022-09-24T21:11:35.219Z,45.53
2022-09-24T21:13:41.806Z,45.50
2022-09-24T21:15:43.792Z,45.28
2022-09-24T21:18:05.090Z,46.47
2022-09-24T21:20:10.334Z,49.03
2022-09-24T21:22:13.740Z,49.90
2022-09-24T21:24:16.483Z,48.17
2022-09-24T21:26:31.916Z,45.08
2022-09-24T21:28:34.853Z,43.63
2022-09-24T21:30:36.751Z,44.72
2022-09-24T21:32:38.937Z,43.17
2022-09-24T21:34:41.755Z,34.13
2022-09-24T21:36:48.375Z,34.67
2022-09-24T21:39:05.311Z,35.33
2022-09-24T21:41:10.069Z,33.03
2022-09-24T21:43:13.628Z,37.08
2022-09-24T21:45:15.809Z,30.10
2022-09-24T21:47:18.301Z,38.08
2022-09-24T21:49:21.231Z,31.55
2022-09-24T21:51:23.722Z,34.45
2022-09-24T21:53:25.647Z,34.65
2022-09-24T21:55:27.467Z,35.80
2022-09-24T21:57:31.326Z,32.17
2022-09-24T21:59:51.576Z,27.25
2022-09-24T22:01:55.409Z,27.85
2022-09-24T22:04:07.273Z,26.77
2022-09-24T22:06:09.774Z,28.85
2022-09-24T22:08:13.232Z,26.23
2022-09-24T22:10:15.295Z,28.55
2022-09-24T22:12:18.103Z,24.52
2022-09-24T22:14:23.249Z,28.15
2022-09-24T22:16:25.263Z,25.48
2022-09-24T22:18:28.230Z,29.45
2022-09-24T22:20:30.236Z,28.30
2022-09-24T22:22:33.238Z,29.05
2022-09-24T22:24:35.130Z,24.23
2022-09-24T22:26:37.049Z,25.23
2022-09-24T22:28:39.983Z,26.45
2022-09-24T22:30:45.511Z,25.60
2022-09-24T22:32:48.526Z,24.23
2022-09-24T22:35:09.220Z,29.30
2022-09-24T22:37:13.202Z,33.55
2022-09-24T22:39:15.739Z,34.13
2022-09-24T22:41:17.578Z,32.65
2022-09-24T22:43:26.417Z,32.95
2022-09-24T22:45:28.333Z,32.58
2022-09-24T22:47:31.223Z,35.83
2022-09-24T22:49:34.328Z,36.42
2022-09-24T22:51:38.590Z,36.08
2022-09-24T22:53:41.613Z,36.25
2022-09-24T22:55:43.730Z,36.42
2022-09-24T22:57:45.749Z,33.90
2022-09-24T22:59:47.720Z,32.08
2022-09-24T23:01:49.687Z,36.78
2022-09-24T23:03:54.257Z,32.65
2022-09-24T23:06:00.216Z,29.85
2022-09-24T23:08:03.096Z,31.02
2022-09-24T23:10:05.327Z,31.08
2022-09-24T23:12:08.227Z,34.97
2022-09-24T23:14:15.164Z,28.73
2022-09-24T23:16:21.390Z,32.83
2022-09-24T23:18:23.349Z,34.78
2022-09-24T23:20:25.413Z,30.38
2022-09-24T23:22:29.481Z,29.55
2022-09-24T23:24:31.528Z,33.45
2022-09-24T23:26:33.918Z,33.83
2022-09-24T23:28:36.743Z,30.17
2022-09-24T23:30:38.675Z,30.70
2022-09-24T23:32:40.574Z,31.25
2022-09-24T23:34:43.484Z,29.50
2022-09-24T23:36:46.494Z,28.27
2022-09-24T23:38:48.834Z,27.77
2022-09-24T23:40:51.089Z,29.63
2022-09-24T23:42:53.079Z,33.60
2022-09-24T23:44:54.922Z,26.42
2022-09-24T23:46:57.701Z,30.92
2022-09-24T23:49:00.041Z,30.83
2022-09-24T23:51:01.940Z,29.48
2022-09-24T23:53:05.210Z,29.92
2022-09-24T23:55:07.365Z,29.80
2022-09-24T23:57:09.507Z,30.05
2022-09-24T23:59:12.647Z,29.05
